sensor_id;sensor_type;location;lat;lon;timestamp;P1;durP1;ratioP1;P2;durP2;ratioP2
68507;SDS011;55510;49.560;19.090;2022-10-17T00:02:20;21.13;;;11.03;;
68507;SDS011;55510;49.560;19.090;2022-10-17T00:05:21;23.55;;;12.57;;
68507;SDS011;55510;49.560;19.090;2022-10-17T00:08:22;26.93;;;12.60;;
68507;SDS011;55510;49.560;19.090;2022-10-17T00:11:24;23.27;;;12.52;;
68507;SDS011;55510;49.560;19.090;2022-10-17T00:14:25;29.57;;;15.93;;
68507;SDS011;55510;49.560;19.090;2022-10-17T00:17:25;29.25;;;15.30;;
68507;SDS011;55510;49.560;19.090;2022-10-17T00:20:26;26.50;;;13.67;;
68507;SDS011;55510;49.560;19.090;2022-10-17T00:23:29;23.20;;;12.63;;
68507;SDS011;55510;49.560;19.090;2022-10-17T00:26:30;20.38;;;10.68;;
68507;SDS011;55510;49.560;19.090;2022-10-17T00:29:31;22.93;;;11.37;;
68507;SDS011;55510;49.560;19.090;2022-10-17T00:32:31;22.02;;;11.68;;
68507;SDS011;55510;49.560;19.090;2022-10-17T00:35:32;27.60;;;14.50;;
68507;SDS011;55510;49.560;19.090;2022-10-17T00:38:33;22.27;;;12.52;;
68507;SDS011;55510;49.560;19.090;2022-10-17T00:41:35;23.60;;;12.30;;
68507;SDS011;55510;49.560;19.090;2022-10-17T00:47:36;25.67;;;13.27;;
68507;SDS011;55510;49.560;19.090;2022-10-17T00:50:39;23.77;;;12.40;;
68507;SDS011;55510;49.560;19.090;2022-10-17T00:53:42;29.73;;;14.15;;
68507;SDS011;55510;49.560;19.090;2022-10-17T00:56:43;23.05;;;11.88;;
68507;SDS011;55510;49.560;19.090;2022-10-17T00:59:47;21.83;;;10.90;;
68507;SDS011;55510;49.560;19.090;2022-10-17T01:02:51;22.15;;;10.77;;
68507;SDS011;55510;49.560;19.090;2022-10-17T01:05:51;23.25;;;12.40;;
68507;SDS011;55510;49.560;19.090;2022-10-17T01:08:52;21.33;;;13.10;;
68507;SDS011;55510;49.560;19.090;2022-10-17T01:15:34;28.37;;;14.03;;
68507;SDS011;55510;49.560;19.090;2022-10-17T01:32:07;19.70;;;9.87;;
68507;SDS011;55510;49.560;19.090;2022-10-17T01:35:27;25.20;;;11.50;;
68507;SDS011;55510;49.560;19.090;2022-10-17T01:38:49;20.98;;;11.18;;
68507;SDS011;55510;49.560;19.090;2022-10-17T01:49:04;19.47;;;10.03;;
68507;SDS011;55510;49.560;19.090;2022-10-17T01:52:23;20.63;;;10.00;;
68507;SDS011;55510;49.560;19.090;2022-10-17T01:55:30;18.75;;;10.10;;
68507;SDS011;55510;49.560;19.090;2022-10-17T01:58:37;23.40;;;12.07;;
68507;SDS011;55510;49.560;19.090;2022-10-17T02:01:43;21.02;;;9.95;;
68507;SDS011;55510;49.560;19.090;2022-10-17T02:04:44;20.20;;;11.00;;
68507;SDS011;55510;49.560;19.090;2022-10-17T02:07:47;21.83;;;11.17;;
68507;SDS011;55510;49.560;19.090;2022-10-17T02:10:55;20.20;;;10.80;;
68507;SDS011;55510;49.560;19.090;2022-10-17T02:14:12;22.93;;;9.70;;
68507;SDS011;55510;49.560;19.090;2022-10-17T02:24:04;19.38;;;10.15;;
68507;SDS011;55510;49.560;19.090;2022-10-17T02:31:01;22.60;;;10.40;;
68507;SDS011;55510;49.560;19.090;2022-10-17T02:34:04;21.30;;;11.55;;
68507;SDS011;55510;49.560;19.090;2022-10-17T02:37:12;22.90;;;11.05;;
68507;SDS011;55510;49.560;19.090;2022-10-17T02:40:17;23.48;;;11.07;;
68507;SDS011;55510;49.560;19.090;2022-10-17T02:43:21;27.35;;;13.40;;
68507;SDS011;55510;49.560;19.090;2022-10-17T02:46:23;27.70;;;13.30;;
68507;SDS011;55510;49.560;19.090;2022-10-17T02:49:30;25.17;;;13.85;;
68507;SDS011;55510;49.560;19.090;2022-10-17T02:52:45;27.38;;;12.73;;
68507;SDS011;55510;49.560;19.090;2022-10-17T02:55:59;27.17;;;12.68;;
68507;SDS011;55510;49.560;19.090;2022-10-17T02:59:05;26.98;;;11.82;;
68507;SDS011;55510;49.560;19.090;2022-10-17T03:02:08;24.97;;;13.13;;
68507;SDS011;55510;49.560;19.090;2022-10-17T03:05:10;26.00;;;13.95;;
68507;SDS011;55510;49.560;19.090;2022-10-17T03:08:12;31.05;;;15.18;;
68507;SDS011;55510;49.560;19.090;2022-10-17T03:11:12;26.67;;;14.10;;
68507;SDS011;55510;49.560;19.090;2022-10-17T03:14:13;28.17;;;14.13;;
68507;SDS011;55510;49.560;19.090;2022-10-17T03:17:14;28.47;;;13.43;;
68507;SDS011;55510;49.560;19.090;2022-10-17T03:20:14;25.10;;;12.83;;
68507;SDS011;55510;49.560;19.090;2022-10-17T03:23:15;26.80;;;12.88;;
68507;SDS011;55510;49.560;19.090;2022-10-17T03:26:15;24.03;;;12.03;;
68507;SDS011;55510;49.560;19.090;2022-10-17T03:29:16;18.65;;;10.48;;
68507;SDS011;55510;49.560;19.090;2022-10-17T03:32:17;23.87;;;11.33;;
68507;SDS011;55510;49.560;19.090;2022-10-17T03:35:17;20.08;;;10.27;;
68507;SDS011;55510;49.560;19.090;2022-10-17T03:38:18;23.30;;;11.77;;
68507;SDS011;55510;49.560;19.090;2022-10-17T03:41:19;22.60;;;11.30;;
68507;SDS011;55510;49.560;19.090;2022-10-17T03:44:20;22.20;;;10.37;;
68507;SDS011;55510;49.560;19.090;2022-10-17T03:47:21;25.17;;;13.30;;
68507;SDS011;55510;49.560;19.090;2022-10-17T03:50:21;22.73;;;12.33;;
68507;SDS011;55510;49.560;19.090;2022-10-17T03:53:22;27.08;;;11.75;;
68507;SDS011;55510;49.560;19.090;2022-10-17T03:56:23;24.33;;;11.93;;
68507;SDS011;55510;49.560;19.090;2022-10-17T03:59:24;25.75;;;12.15;;
68507;SDS011;55510;49.560;19.090;2022-10-17T04:02:25;23.20;;;12.13;;
68507;SDS011;55510;49.560;19.090;2022-10-17T04:05:25;29.83;;;12.10;;
68507;SDS011;55510;49.560;19.090;2022-10-17T04:08:26;24.10;;;11.80;;
68507;SDS011;55510;49.560;19.090;2022-10-17T04:11:27;21.65;;;10.85;;
68507;SDS011;55510;49.560;19.090;2022-10-17T04:14:28;23.07;;;12.10;;
68507;SDS011;55510;49.560;19.090;2022-10-17T04:17:29;25.25;;;12.82;;
68507;SDS011;55510;49.560;19.090;2022-10-17T04:20:30;24.57;;;12.10;;
68507;SDS011;55510;49.560;19.090;2022-10-17T04:23:31;28.65;;;13.43;;
68507;SDS011;55510;49.560;19.090;2022-10-17T04:26:31;24.73;;;12.57;;
68507;SDS011;55510;49.560;19.090;2022-10-17T04:29:32;28.70;;;13.80;;
68507;SDS011;55510;49.560;19.090;2022-10-17T04:32:35;25.13;;;11.90;;
68507;SDS011;55510;49.560;19.090;2022-10-17T04:35:37;26.42;;;12.85;;
68507;SDS011;55510;49.560;19.090;2022-10-17T04:38:38;23.90;;;12.07;;
68507;SDS011;55510;49.560;19.090;2022-10-17T04:41:39;26.63;;;12.82;;
68507;SDS011;55510;49.560;19.090;2022-10-17T04:44:39;28.00;;;13.80;;
68507;SDS011;55510;49.560;19.090;2022-10-17T04:47:40;25.00;;;13.20;;
68507;SDS011;55510;49.560;19.090;2022-10-17T04:50:41;29.27;;;14.98;;
68507;SDS011;55510;49.560;19.090;2022-10-17T04:53:53;29.37;;;18.57;;
68507;SDS011;55510;49.560;19.090;2022-10-17T04:56:54;33.22;;;19.67;;
68507;SDS011;55510;49.560;19.090;2022-10-17T04:59:54;30.13;;;17.02;;
68507;SDS011;55510;49.560;19.090;2022-10-17T05:02:55;32.13;;;15.97;;
68507;SDS011;55510;49.560;19.090;2022-10-17T05:05:56;29.93;;;15.23;;
68507;SDS011;55510;49.560;19.090;2022-10-17T05:08:56;23.88;;;12.50;;
68507;SDS011;55510;49.560;19.090;2022-10-17T05:11:57;26.03;;;12.70;;
68507;SDS011;55510;49.560;19.090;2022-10-17T05:14:58;29.02;;;14.05;;
68507;SDS011;55510;49.560;19.090;2022-10-17T05:17:59;31.67;;;14.57;;
68507;SDS011;55510;49.560;19.090;2022-10-17T05:21:01;30.02;;;14.18;;
68507;SDS011;55510;49.560;19.090;2022-10-17T05:24:07;25.45;;;12.27;;
68507;SDS011;55510;49.560;19.090;2022-10-17T05:27:08;27.83;;;15.40;;
68507;SDS011;55510;49.560;19.090;2022-10-17T05:30:09;33.23;;;16.60;;
68507;SDS011;55510;49.560;19.090;2022-10-17T05:33:10;35.58;;;15.93;;
68507;SDS011;55510;49.560;19.090;2022-10-17T05:36:11;29.77;;;16.33;;
68507;SDS011;55510;49.560;19.090;2022-10-17T05:39:12;34.22;;;15.00;;
68507;SDS011;55510;49.560;19.090;2022-10-17T05:42:14;28.97;;;13.43;;
68507;SDS011;55510;49.560;19.090;2022-10-17T05:45:14;26.85;;;13.63;;
68507;SDS011;55510;49.560;19.090;2022-10-17T05:48:15;30.93;;;13.87;;
68507;SDS011;55510;49.560;19.090;2022-10-17T05:51:16;25.53;;;13.80;;
68507;SDS011;55510;49.560;19.090;2022-10-17T05:54:17;29.30;;;14.57;;
68507;SDS011;55510;49.560;19.090;2022-10-17T05:57:17;26.48;;;13.95;;
68507;SDS011;55510;49.560;19.090;2022-10-17T06:00:18;30.33;;;14.13;;
68507;SDS011;55510;49.560;19.090;2022-10-17T06:03:21;31.83;;;14.95;;
68507;SDS011;55510;49.560;19.090;2022-10-17T06:06:21;35.80;;;16.40;;
68507;SDS011;55510;49.560;19.090;2022-10-17T06:09:22;26.85;;;14.50;;
68507;SDS011;55510;49.560;19.090;2022-10-17T06:12:23;24.48;;;12.63;;
68507;SDS011;55510;49.560;19.090;2022-10-17T06:15:24;22.03;;;12.33;;
68507;SDS011;55510;49.560;19.090;2022-10-17T06:18:25;27.85;;;14.82;;
68507;SDS011;55510;49.560;19.090;2022-10-17T06:21:25;24.70;;;13.87;;
68507;SDS011;55510;49.560;19.090;2022-10-17T06:24:27;30.20;;;16.23;;
68507;SDS011;55510;49.560;19.090;2022-10-17T06:27:27;30.63;;;16.53;;
68507;SDS011;55510;49.560;19.090;2022-10-17T06:30:28;27.20;;;14.82;;
68507;SDS011;55510;49.560;19.090;2022-10-17T06:33:28;32.47;;;15.00;;
68507;SDS011;55510;49.560;19.090;2022-10-17T06:36:29;29.83;;;14.93;;
68507;SDS011;55510;49.560;19.090;2022-10-17T06:39:30;36.90;;;15.47;;
68507;SDS011;55510;49.560;19.090;2022-10-17T06:42:33;38.28;;;15.80;;
68507;SDS011;55510;49.560;19.090;2022-10-17T06:45:33;29.93;;;16.37;;
68507;SDS011;55510;49.560;19.090;2022-10-17T06:48:34;33.10;;;15.27;;
68507;SDS011;55510;49.560;19.090;2022-10-17T06:51:35;36.87;;;18.37;;
68507;SDS011;55510;49.560;19.090;2022-10-17T06:54:36;27.83;;;14.88;;
68507;SDS011;55510;49.560;19.090;2022-10-17T06:57:37;29.20;;;14.37;;
68507;SDS011;55510;49.560;19.090;2022-10-17T07:00:38;28.50;;;14.05;;
68507;SDS011;55510;49.560;19.090;2022-10-17T07:03:40;25.23;;;12.00;;
68507;SDS011;55510;49.560;19.090;2022-10-17T07:06:41;31.50;;;14.93;;
68507;SDS011;55510;49.560;19.090;2022-10-17T07:09:41;34.60;;;15.50;;
68507;SDS011;55510;49.560;19.090;2022-10-17T07:12:42;40.00;;;17.40;;
68507;SDS011;55510;49.560;19.090;2022-10-17T07:15:44;36.05;;;16.38;;
68507;SDS011;55510;49.560;19.090;2022-10-17T07:18:47;23.13;;;11.93;;
68507;SDS011;55510;49.560;19.090;2022-10-17T07:21:48;20.13;;;10.10;;
68507;SDS011;55510;49.560;19.090;2022-10-17T07:24:49;19.27;;;9.85;;
68507;SDS011;55510;49.560;19.090;2022-10-17T07:27:50;20.67;;;12.53;;
68507;SDS011;55510;49.560;19.090;2022-10-17T07:30:52;17.23;;;10.38;;
68507;SDS011;55510;49.560;19.090;2022-10-17T07:33:52;17.90;;;10.18;;
68507;SDS011;55510;49.560;19.090;2022-10-17T07:36:53;17.70;;;10.27;;
68507;SDS011;55510;49.560;19.090;2022-10-17T07:39:54;19.47;;;11.13;;
68507;SDS011;55510;49.560;19.090;2022-10-17T07:42:55;16.20;;;11.15;;
68507;SDS011;55510;49.560;19.090;2022-10-17T07:45:59;19.02;;;11.32;;
68507;SDS011;55510;49.560;19.090;2022-10-17T07:49:01;20.40;;;13.40;;
68507;SDS011;55510;49.560;19.090;2022-10-17T07:52:04;19.58;;;12.43;;
68507;SDS011;55510;49.560;19.090;2022-10-17T07:55:05;18.27;;;11.63;;
68507;SDS011;55510;49.560;19.090;2022-10-17T07:58:07;44.78;;;26.77;;
68507;SDS011;55510;49.560;19.090;2022-10-17T08:01:09;19.40;;;13.23;;
68507;SDS011;55510;49.560;19.090;2022-10-17T08:04:13;16.38;;;12.00;;
68507;SDS011;55510;49.560;19.090;2022-10-17T08:07:19;16.77;;;10.83;;
68507;SDS011;55510;49.560;19.090;2022-10-17T08:10:20;16.10;;;11.57;;
68507;SDS011;55510;49.560;19.090;2022-10-17T08:13:27;17.38;;;13.30;;
68507;SDS011;55510;49.560;19.090;2022-10-17T08:16:27;17.03;;;12.13;;
68507;SDS011;55510;49.560;19.090;2022-10-17T08:19:29;18.13;;;13.40;;
68507;SDS011;55510;49.560;19.090;2022-10-17T08:22:29;17.93;;;12.60;;
68507;SDS011;55510;49.560;19.090;2022-10-17T08:25:31;25.73;;;14.90;;
68507;SDS011;55510;49.560;19.090;2022-10-17T08:28:36;28.35;;;15.63;;
68507;SDS011;55510;49.560;19.090;2022-10-17T08:31:38;16.40;;;11.70;;
68507;SDS011;55510;49.560;19.090;2022-10-17T08:34:38;17.90;;;12.20;;
68507;SDS011;55510;49.560;19.090;2022-10-17T08:37:39;15.13;;;11.73;;
68507;SDS011;55510;49.560;19.090;2022-10-17T08:40:40;13.97;;;10.77;;
68507;SDS011;55510;49.560;19.090;2022-10-17T08:46:56;14.80;;;10.10;;
68507;SDS011;55510;49.560;19.090;2022-10-17T08:50:01;12.33;;;9.90;;
68507;SDS011;55510;49.560;19.090;2022-10-17T08:53:07;13.63;;;10.03;;
68507;SDS011;55510;49.560;19.090;2022-10-17T08:56:17;13.32;;;9.65;;
68507;SDS011;55510;49.560;19.090;2022-10-17T08:59:27;9.43;;;7.60;;
68507;SDS011;55510;49.560;19.090;2022-10-17T09:02:45;9.45;;;6.72;;
68507;SDS011;55510;49.560;19.090;2022-10-17T09:13:30;9.50;;;6.70;;
68507;SDS011;55510;49.560;19.090;2022-10-17T09:20:39;8.82;;;5.90;;
68507;SDS011;55510;49.560;19.090;2022-10-17T09:23:49;9.40;;;5.97;;
68507;SDS011;55510;49.560;19.090;2022-10-17T09:26:52;9.70;;;6.00;;
68507;SDS011;55510;49.560;19.090;2022-10-17T09:33:14;8.68;;;5.35;;
68507;SDS011;55510;49.560;19.090;2022-10-17T09:36:30;9.80;;;5.95;;
68507;SDS011;55510;49.560;19.090;2022-10-17T09:39:33;10.80;;;6.73;;
68507;SDS011;55510;49.560;19.090;2022-10-17T09:42:34;9.83;;;5.53;;
68507;SDS011;55510;49.560;19.090;2022-10-17T09:45:42;8.13;;;5.45;;
68507;SDS011;55510;49.560;19.090;2022-10-17T09:48:55;8.32;;;5.55;;
68507;SDS011;55510;49.560;19.090;2022-10-17T09:52:02;7.95;;;5.45;;
68507;SDS011;55510;49.560;19.090;2022-10-17T09:55:06;10.40;;;5.63;;
68507;SDS011;55510;49.560;19.090;2022-10-17T09:58:40;8.63;;;5.60;;
68507;SDS011;55510;49.560;19.090;2022-10-17T10:05:18;10.02;;;5.40;;
68507;SDS011;55510;49.560;19.090;2022-10-17T10:08:20;7.93;;;4.88;;
68507;SDS011;55510;49.560;19.090;2022-10-17T10:11:25;10.60;;;5.60;;
68507;SDS011;55510;49.560;19.090;2022-10-17T10:14:45;11.30;;;5.37;;
68507;SDS011;55510;49.560;19.090;2022-10-17T10:17:46;9.35;;;4.72;;
68507;SDS011;55510;49.560;19.090;2022-10-17T10:20:47;8.57;;;5.57;;
68507;SDS011;55510;49.560;19.090;2022-10-17T10:24:12;8.77;;;4.77;;
68507;SDS011;55510;49.560;19.090;2022-10-17T10:27:16;10.03;;;4.87;;
68507;SDS011;55510;49.560;19.090;2022-10-17T10:30:19;11.35;;;5.07;;
68507;SDS011;55510;49.560;19.090;2022-10-17T10:33:24;8.65;;;4.70;;
68507;SDS011;55510;49.560;19.090;2022-10-17T10:36:44;9.93;;;4.80;;
68507;SDS011;55510;49.560;19.090;2022-10-17T10:43:23;8.80;;;4.50;;
68507;SDS011;55510;49.560;19.090;2022-10-17T10:46:25;9.73;;;4.35;;
68507;SDS011;55510;49.560;19.090;2022-10-17T10:49:31;7.43;;;4.78;;
68507;SDS011;55510;49.560;19.090;2022-10-17T10:52:53;8.43;;;5.00;;
68507;SDS011;55510;49.560;19.090;2022-10-17T10:55:58;7.73;;;4.57;;
68507;SDS011;55510;49.560;19.090;2022-10-17T11:12:38;7.57;;;4.57;;
68507;SDS011;55510;49.560;19.090;2022-10-17T11:28:12;8.07;;;5.10;;
68507;SDS011;55510;49.560;19.090;2022-10-17T11:31:14;9.27;;;4.70;;
68507;SDS011;55510;49.560;19.090;2022-10-17T11:34:19;8.05;;;4.95;;
68507;SDS011;55510;49.560;19.090;2022-10-17T11:37:28;6.30;;;4.30;;
68507;SDS011;55510;49.560;19.090;2022-10-17T11:40:39;8.88;;;4.40;;
68507;SDS011;55510;49.560;19.090;2022-10-17T11:43:47;7.80;;;4.82;;
68507;SDS011;55510;49.560;19.090;2022-10-17T11:46:56;8.48;;;4.60;;
68507;SDS011;55510;49.560;19.090;2022-10-17T11:50:04;7.10;;;4.47;;
68507;SDS011;55510;49.560;19.090;2022-10-17T11:53:18;8.83;;;5.07;;
68507;SDS011;55510;49.560;19.090;2022-10-17T12:10:15;8.63;;;4.80;;
68507;SDS011;55510;49.560;19.090;2022-10-17T12:16:37;6.68;;;5.10;;
68507;SDS011;55510;49.560;19.090;2022-10-17T12:19:41;8.50;;;4.80;;
68507;SDS011;55510;49.560;19.090;2022-10-17T12:22:46;7.28;;;3.95;;
68507;SDS011;55510;49.560;19.090;2022-10-17T12:26:03;13.60;;;4.82;;
68507;SDS011;55510;49.560;19.090;2022-10-17T12:29:15;7.25;;;4.30;;
68507;SDS011;55510;49.560;19.090;2022-10-17T12:36:38;8.53;;;5.80;;
68507;SDS011;55510;49.560;19.090;2022-10-17T12:42:43;9.38;;;5.40;;
68507;SDS011;55510;49.560;19.090;2022-10-17T12:45:51;9.80;;;5.83;;
68507;SDS011;55510;49.560;19.090;2022-10-17T12:49:00;7.75;;;4.72;;
68507;SDS011;55510;49.560;19.090;2022-10-17T12:55:47;12.15;;;6.57;;
68507;SDS011;55510;49.560;19.090;2022-10-17T12:58:50;11.40;;;6.35;;
68507;SDS011;55510;49.560;19.090;2022-10-17T13:01:55;16.23;;;8.03;;
68507;SDS011;55510;49.560;19.090;2022-10-17T13:05:10;14.05;;;7.97;;
68507;SDS011;55510;49.560;19.090;2022-10-17T13:08:32;13.82;;;7.75;;
68507;SDS011;55510;49.560;19.090;2022-10-17T13:11:36;10.77;;;6.60;;
68507;SDS011;55510;49.560;19.090;2022-10-17T13:14:40;14.93;;;7.07;;
68507;SDS011;55510;49.560;19.090;2022-10-17T13:17:45;11.15;;;6.05;;
68507;SDS011;55510;49.560;19.090;2022-10-17T13:23:58;11.05;;;4.60;;
68507;SDS011;55510;49.560;19.090;2022-10-17T13:27:00;10.07;;;5.45;;
68507;SDS011;55510;49.560;19.090;2022-10-17T13:30:02;13.53;;;5.00;;
68507;SDS011;55510;49.560;19.090;2022-10-17T13:33:33;11.25;;;4.70;;
68507;SDS011;55510;49.560;19.090;2022-10-17T13:36:38;13.02;;;5.20;;
68507;SDS011;55510;49.560;19.090;2022-10-17T13:39:43;9.82;;;4.60;;
68507;SDS011;55510;49.560;19.090;2022-10-17T13:42:46;9.55;;;4.60;;
68507;SDS011;55510;49.560;19.090;2022-10-17T13:45:51;8.63;;;4.10;;
68507;SDS011;55510;49.560;19.090;2022-10-17T13:49:08;9.50;;;4.75;;
68507;SDS011;55510;49.560;19.090;2022-10-17T13:52:19;9.65;;;4.63;;
68507;SDS011;55510;49.560;19.090;2022-10-17T13:55:24;13.68;;;5.07;;
68507;SDS011;55510;49.560;19.090;2022-10-17T13:58:28;9.47;;;4.60;;
68507;SDS011;55510;49.560;19.090;2022-10-17T14:01:31;11.48;;;5.10;;
68507;SDS011;55510;49.560;19.090;2022-10-17T14:04:32;9.93;;;4.10;;
68507;SDS011;55510;49.560;19.090;2022-10-17T14:10:48;12.23;;;4.43;;
68507;SDS011;55510;49.560;19.090;2022-10-17T14:13:49;9.23;;;3.95;;
68507;SDS011;55510;49.560;19.090;2022-10-17T14:16:52;10.90;;;4.90;;
68507;SDS011;55510;49.560;19.090;2022-10-17T14:19:57;7.80;;;4.40;;
68507;SDS011;55510;49.560;19.090;2022-10-17T14:23:03;11.13;;;4.78;;
68507;SDS011;55510;49.560;19.090;2022-10-17T14:29:19;11.33;;;6.30;;
68507;SDS011;55510;49.560;19.090;2022-10-17T14:32:22;11.40;;;5.22;;
68507;SDS011;55510;49.560;19.090;2022-10-17T14:35:23;7.22;;;4.43;;
68507;SDS011;55510;49.560;19.090;2022-10-17T14:38:24;7.50;;;4.00;;
68507;SDS011;55510;49.560;19.090;2022-10-17T14:41:27;10.50;;;4.30;;
68507;SDS011;55510;49.560;19.090;2022-10-17T14:44:31;7.80;;;3.90;;
68507;SDS011;55510;49.560;19.090;2022-10-17T14:47:34;10.80;;;6.13;;
68507;SDS011;55510;49.560;19.090;2022-10-17T14:50:35;10.00;;;4.13;;
68507;SDS011;55510;49.560;19.090;2022-10-17T14:53:36;10.63;;;5.40;;
68507;SDS011;55510;49.560;19.090;2022-10-17T14:56:40;12.07;;;5.88;;
68507;SDS011;55510;49.560;19.090;2022-10-17T14:59:41;13.10;;;8.15;;
68507;SDS011;55510;49.560;19.090;2022-10-17T15:02:43;14.00;;;8.43;;
68507;SDS011;55510;49.560;19.090;2022-10-17T15:05:44;13.18;;;6.85;;
68507;SDS011;55510;49.560;19.090;2022-10-17T15:08:46;11.45;;;6.13;;
68507;SDS011;55510;49.560;19.090;2022-10-17T15:11:46;11.43;;;5.73;;
68507;SDS011;55510;49.560;19.090;2022-10-17T15:14:47;13.63;;;6.20;;
68507;SDS011;55510;49.560;19.090;2022-10-17T15:17:48;15.23;;;6.72;;
68507;SDS011;55510;49.560;19.090;2022-10-17T15:20:48;14.00;;;7.63;;
68507;SDS011;55510;49.560;19.090;2022-10-17T15:23:49;14.88;;;8.38;;
68507;SDS011;55510;49.560;19.090;2022-10-17T15:26:50;13.13;;;7.23;;
68507;SDS011;55510;49.560;19.090;2022-10-17T15:29:51;12.87;;;6.83;;
68507;SDS011;55510;49.560;19.090;2022-10-17T15:32:52;25.38;;;13.00;;
68507;SDS011;55510;49.560;19.090;2022-10-17T15:35:53;39.05;;;22.48;;
68507;SDS011;55510;49.560;19.090;2022-10-17T15:38:55;36.60;;;20.43;;
68507;SDS011;55510;49.560;19.090;2022-10-17T15:41:57;37.50;;;19.48;;
68507;SDS011;55510;49.560;19.090;2022-10-17T15:44:59;43.67;;;19.13;;
68507;SDS011;55510;49.560;19.090;2022-10-17T15:48:01;37.67;;;17.50;;
68507;SDS011;55510;49.560;19.090;2022-10-17T15:51:16;36.60;;;16.63;;
68507;SDS011;55510;49.560;19.090;2022-10-17T15:54:17;54.35;;;23.17;;
68507;SDS011;55510;49.560;19.090;2022-10-17T15:57:21;41.93;;;18.90;;
68507;SDS011;55510;49.560;19.090;2022-10-17T16:00:24;41.00;;;19.15;;
68507;SDS011;55510;49.560;19.090;2022-10-17T16:03:25;56.17;;;26.00;;
68507;SDS011;55510;49.560;19.090;2022-10-17T16:06:28;33.15;;;15.18;;
68507;SDS011;55510;49.560;19.090;2022-10-17T16:09:29;30.88;;;13.98;;
68507;SDS011;55510;49.560;19.090;2022-10-17T16:12:30;39.97;;;19.23;;
68507;SDS011;55510;49.560;19.090;2022-10-17T16:15:36;46.42;;;21.08;;
68507;SDS011;55510;49.560;19.090;2022-10-17T16:18:36;45.25;;;20.83;;
68507;SDS011;55510;49.560;19.090;2022-10-17T16:21:38;37.50;;;19.53;;
68507;SDS011;55510;49.560;19.090;2022-10-17T16:24:40;41.45;;;21.58;;
68507;SDS011;55510;49.560;19.090;2022-10-17T16:27:40;60.50;;;26.90;;
68507;SDS011;55510;49.560;19.090;2022-10-17T16:30:42;133.35;;;52.92;;
68507;SDS011;55510;49.560;19.090;2022-10-17T16:33:45;107.93;;;43.30;;
68507;SDS011;55510;49.560;19.090;2022-10-17T16:36:47;86.17;;;35.33;;
68507;SDS011;55510;49.560;19.090;2022-10-17T16:39:47;73.53;;;30.77;;
68507;SDS011;55510;49.560;19.090;2022-10-17T16:42:51;71.40;;;30.80;;
68507;SDS011;55510;49.560;19.090;2022-10-17T16:45:52;60.83;;;29.43;;
68507;SDS011;55510;49.560;19.090;2022-10-17T16:48:53;69.03;;;30.38;;
68507;SDS011;55510;49.560;19.090;2022-10-17T16:51:54;55.60;;;25.35;;
68507;SDS011;55510;49.560;19.090;2022-10-17T16:54:55;42.03;;;20.07;;
68507;SDS011;55510;49.560;19.090;2022-10-17T16:57:55;34.40;;;15.57;;
68507;SDS011;55510;49.560;19.090;2022-10-17T17:01:03;28.50;;;13.50;;
68507;SDS011;55510;49.560;19.090;2022-10-17T17:04:05;23.23;;;13.23;;
68507;SDS011;55510;49.560;19.090;2022-10-17T17:07:06;29.73;;;16.90;;
68507;SDS011;55510;49.560;19.090;2022-10-17T17:10:07;38.75;;;18.15;;
68507;SDS011;55510;49.560;19.090;2022-10-17T17:13:08;42.95;;;20.33;;
68507;SDS011;55510;49.560;19.090;2022-10-17T17:16:10;48.97;;;20.40;;
68507;SDS011;55510;49.560;19.090;2022-10-17T17:19:11;49.17;;;20.98;;
68507;SDS011;55510;49.560;19.090;2022-10-17T17:22:15;46.22;;;21.17;;
68507;SDS011;55510;49.560;19.090;2022-10-17T17:25:16;48.37;;;21.07;;
68507;SDS011;55510;49.560;19.090;2022-10-17T17:28:17;41.70;;;18.70;;
68507;SDS011;55510;49.560;19.090;2022-10-17T17:31:22;38.63;;;19.07;;
68507;SDS011;55510;49.560;19.090;2022-10-17T17:34:24;30.98;;;15.60;;
68507;SDS011;55510;49.560;19.090;2022-10-17T17:37:25;35.67;;;15.93;;
68507;SDS011;55510;49.560;19.090;2022-10-17T17:40:25;50.33;;;21.65;;
68507;SDS011;55510;49.560;19.090;2022-10-17T17:43:26;48.03;;;20.13;;
68507;SDS011;55510;49.560;19.090;2022-10-17T17:46:27;41.25;;;20.80;;
68507;SDS011;55510;49.560;19.090;2022-10-17T17:49:28;44.67;;;20.40;;
68507;SDS011;55510;49.560;19.090;2022-10-17T17:52:29;47.93;;;20.83;;
68507;SDS011;55510;49.560;19.090;2022-10-17T17:55:30;45.80;;;21.52;;
68507;SDS011;55510;49.560;19.090;2022-10-17T17:58:31;38.07;;;17.93;;
68507;SDS011;55510;49.560;19.090;2022-10-17T18:01:33;42.28;;;20.63;;
68507;SDS011;55510;49.560;19.090;2022-10-17T18:04:37;45.83;;;21.42;;
68507;SDS011;55510;49.560;19.090;2022-10-17T18:07:38;46.07;;;21.70;;
68507;SDS011;55510;49.560;19.090;2022-10-17T18:10:38;54.30;;;24.42;;
68507;SDS011;55510;49.560;19.090;2022-10-17T18:13:39;49.17;;;25.00;;
68507;SDS011;55510;49.560;19.090;2022-10-17T18:16:39;45.05;;;22.33;;
68507;SDS011;55510;49.560;19.090;2022-10-17T18:19:40;43.63;;;22.43;;
68507;SDS011;55510;49.560;19.090;2022-10-17T18:22:41;40.43;;;19.93;;
68507;SDS011;55510;49.560;19.090;2022-10-17T18:25:42;46.00;;;22.83;;
68507;SDS011;55510;49.560;19.090;2022-10-17T18:28:45;43.28;;;20.90;;
68507;SDS011;55510;49.560;19.090;2022-10-17T18:31:46;43.80;;;21.63;;
68507;SDS011;55510;49.560;19.090;2022-10-17T18:34:47;46.97;;;23.30;;
68507;SDS011;55510;49.560;19.090;2022-10-17T18:37:48;40.38;;;17.48;;
68507;SDS011;55510;49.560;19.090;2022-10-17T18:40:49;38.80;;;18.70;;
68507;SDS011;55510;49.560;19.090;2022-10-17T18:43:50;38.88;;;18.67;;
68507;SDS011;55510;49.560;19.090;2022-10-17T18:46:51;44.88;;;20.60;;
68507;SDS011;55510;49.560;19.090;2022-10-17T18:49:52;40.60;;;17.80;;
68507;SDS011;55510;49.560;19.090;2022-10-17T18:52:53;38.73;;;17.70;;
68507;SDS011;55510;49.560;19.090;2022-10-17T18:55:54;39.47;;;19.75;;
68507;SDS011;55510;49.560;19.090;2022-10-17T18:58:54;43.78;;;21.42;;
68507;SDS011;55510;49.560;19.090;2022-10-17T19:01:56;42.97;;;20.17;;
68507;SDS011;55510;49.560;19.090;2022-10-17T19:04:56;42.00;;;19.63;;
68507;SDS011;55510;49.560;19.090;2022-10-17T19:07:57;43.50;;;20.33;;
68507;SDS011;55510;49.560;19.090;2022-10-17T19:11:03;43.80;;;20.55;;
68507;SDS011;55510;49.560;19.090;2022-10-17T19:14:08;43.90;;;19.80;;
68507;SDS011;55510;49.560;19.090;2022-10-17T19:17:12;43.03;;;19.52;;
68507;SDS011;55510;49.560;19.090;2022-10-17T19:20:12;41.50;;;19.23;;
68507;SDS011;55510;49.560;19.090;2022-10-17T19:23:13;38.83;;;19.50;;
68507;SDS011;55510;49.560;19.090;2022-10-17T19:26:14;38.22;;;18.65;;
68507;SDS011;55510;49.560;19.090;2022-10-17T19:29:15;37.60;;;17.90;;
68507;SDS011;55510;49.560;19.090;2022-10-17T19:32:17;39.97;;;17.95;;
68507;SDS011;55510;49.560;19.090;2022-10-17T19:35:18;45.43;;;20.90;;
68507;SDS011;55510;49.560;19.090;2022-10-17T19:38:18;35.78;;;18.70;;
68507;SDS011;55510;49.560;19.090;2022-10-17T19:41:19;40.17;;;18.77;;
68507;SDS011;55510;49.560;19.090;2022-10-17T19:44:25;39.10;;;19.05;;
68507;SDS011;55510;49.560;19.090;2022-10-17T19:47:25;35.33;;;18.13;;
68507;SDS011;55510;49.560;19.090;2022-10-17T19:50:26;34.77;;;17.27;;